首页
METAR-TAF:

METAR-TAF

机场 :

Guymon, 奧克拉荷馬州, 美国

纬度: 36-40-54N, 经度: 101-30-19W, 海拔: 952米

当前天气观测

该预报发布于32分钟前的21:53 UTC
风速14节,风向,有时为25节阵风
温度 11°C
湿度 47%
气压 1019 hPa
能見度: 16.1公里
天空无云

METAR: KGUY 112153Z AUTO 19014G25KT 10SM CLR 11/00 A3008 RMK AO2 PK WND 19027/2103 SLP190 T01060000

时间: 16:25 (22:25 UTC)

预报

该预报发布于4小时和57分钟前的17:28 UTC
预报有效从11日的 18点(UTC)到 12日的 18点(UTC)
风速12节,风向
能見度: 10公里
天空无云
从 12日的 0200点(UTC)
风速15节,风向南转西南
能見度: 10公里
多云层高于25000英尺
从 12日的 0500点(UTC)
风速15节,风向西南
能見度: 10公里
散云层高于20000英尺
从 12日的 0700点(UTC)
风速13节,风向西南
能見度: 10公里
少量云层高于25000英尺
从 12日的 1100点(UTC)
风速11节,风向西转西北
能見度: 10公里
少量云层高于25000英尺

TAF: KGUY 111728Z 1118/1218 18012KT P6SM SKC FM120200 20015KT P6SM BKN250 WS020/21045KT FM120500 22015KT P6SM SCT200 WS020/23045KT FM120700 23013KT P6SM FEW250 FM121100 30011KT P6SM FEW250

超过4000个机场的气象观测和天气预报(METAR&TAF报告)。

可查询的气象台以黄色和红色小点在地图上表示。

将鼠标移到小点上方,可查看气象台名称。

然后点击查看天气观测和预报。

如需切换地图:点击带黑十字的绿色按钮放大地图;点击带横线的绿色按钮缩小地图;或者点击绿色箭头查看邻近地区的地图。


METAR-TAF: